• Join FlightAware (Why Join?)
  • Login
  • US Flag 
03:56PM EDT


 

Airport Tracker/Info


-or-


 

Live Flight TrackerFlight Track Log ✈ ASQ6151 ✈ 20-May-2013 ✈ KSAV - KORD

Flight Track Log - Related Links

Times and Time Zones

All times are in EDT time to prevent confusion due to time zone crossing. See the ASQ6151 flight status page for this flight to view local times or setup timezone preferences in your user account.

Time Position Orientation Groundspeed Altitude Reporting Facility
EDT Latitude Longitude Course Direction KTS MPH feet Rate Location/Type
07:25PM 32.1622 -81.1061 North 225 259 2,800  Level Jacksonville Center
07:26PM 32.2144 -81.1050 North 239 275 4,600 2,040 Climbing Jacksonville Center
07:27PM 32.2897 -81.1033 North 265 305 6,900 2,160 Climbing Jacksonville Center
07:28PM 32.3647 -81.1044 359° North 270 311 9,000 1,920 Climbing Jacksonville Center
07:29PM 32.4442 -81.1006 North 270 311 10,800 1,920 Climbing Jacksonville Center
07:30PM 32.6578 -81.1500 North  Level FlightAware Approximate
07:30PM 32.5108 -81.0992 North 270 311 12,900  Level Jacksonville Center
07:31PM 32.7489 -81.1439 North  Level FlightAware Approximate
07:31PM 32.5964 -81.0975 North 276 318 14,600  Level Jacksonville Center
07:32PM 32.6714 -81.0961 North 279 321 15,600 780 Climbing Jacksonville Center
07:33PM 32.7717 -81.0914 North 299 344 16,200 600 Climbing Jacksonville Center
07:34PM 32.8675 -81.0847 North 323 372 16,900 660 Climbing Jacksonville Center
07:35PM 32.9678 -81.0828 North 342 394 17,600 660 Climbing Jacksonville Center
07:36PM 33.0719 -81.0806 North 361 415 18,300 900 Climbing Jacksonville Center
07:37PM 33.1806 -81.0783 North 368 423 19,400 1,020 Climbing Jacksonville Center
07:38PM 33.2850 -81.0736 North 373 429 20,400 960 Climbing Jacksonville Center
07:39PM 33.3914 -81.0717 North 373 429 21,400 960 Climbing Jacksonville Center
07:40PM 33.4997 -81.0694 North 379 436 22,400 1,020 Climbing Jacksonville Center
07:41PM 33.6061 -81.0647 North 384 442 23,500 1,020 Climbing Jacksonville Center
07:42PM 33.7144 -81.0600 North 384 442 24,500 960 Climbing Jacksonville Center
07:43PM 33.8083 -81.0556 North 379 436 25,500 960 Climbing Jacksonville Center
07:44PM 33.9172 -81.0781 350° North 384 442 26,500 960 Climbing Jacksonville Center
07:45PM 34.0158 -81.1186 341° North 384 442 27,500 960 Climbing Jacksonville Center
07:47PM 34.2164 -81.2028 341° North 382 440 29,500 960 Climbing Atlanta Center
07:48PM 34.3197 -81.2419 343° North 382 440 30,500 900 Climbing Atlanta Center
07:49PM 34.4333 -81.2911 340° North 392 451 31,300 720 Climbing Atlanta Center
07:50PM 34.5281 -81.3258 343° North 392 451 32,000 780 Climbing Atlanta Center
07:51PM 34.6461 -81.3825 338° Northwest 406 467 32,900 780 Climbing Atlanta Center
07:52PM 34.7472 -81.4222 342° North 412 474 33,600 720 Climbing Atlanta Center
07:53PM 34.8525 -81.4622 343° North 412 474 34,400 780 Climbing Atlanta Center
07:54PM 34.9619 -81.5094 341° North 412 474 35,200 780 Climbing Atlanta Center
07:55PM 35.0714 -81.5569 340° North 412 474 36,000 360 Climbing Atlanta Center
07:56PM 35.1808 -81.6017 342° North 412 474 36,000  Level Atlanta Center
07:57PM 35.3069 -81.6542 341° North 417 480 36,000  Level Atlanta Center
07:58PM 35.4247 -81.7042 341° North 438 504 36,000  Level Atlanta Center
07:59PM 35.5447 -81.7519 342° North 444 511 36,000  Level Atlanta Center
08:00PM 35.6625 -81.8022 341° North 449 517 36,000  Level Atlanta Center
08:01PM 35.7781 -81.8503 341° North 449 517 36,000  Level Atlanta Center
08:02PM 35.8958 -81.9008 341° North 449 517 36,000  Level Atlanta Center
08:03PM 35.9967 -81.9444 341° North 444 511 36,000  Level Atlanta Center
08:04PM 36.1122 -81.9928 341° North 444 511 36,000  Level Atlanta Center
08:05PM 36.2319 -82.0414 342° North 437 503 36,000  Level Atlanta Center
08:06PM 36.3536 -82.0925 341° North 427 491 36,000  Level Atlanta Center
08:07PM 36.4631 -82.1542 336° Northwest 427 491 36,000  Level Atlanta Center
08:10PM 36.7053 -82.3847 323° Northwest 435 501 36,000  Level Indianapolis Center
08:11PM 36.8022 -82.4775 323° Northwest 438 504 36,000  Level Indianapolis Center
08:12PM 36.8975 -82.5694 322° Northwest 435 501 36,000  Level Indianapolis Center
08:13PM 36.9928 -82.6600 323° Northwest 435 501 36,000  Level Indianapolis Center
08:14PM 37.0867 -82.7517 322° Northwest 435 501 36,000  Level Indianapolis Center
08:15PM 37.1964 -82.8586 322° Northwest 430 495 36,000  Level Indianapolis Center
08:16PM 37.2906 -82.9500 322° Northwest 430 495 36,000  Level Indianapolis Center
08:17PM 37.3844 -83.0422 322° Northwest 430 495 36,000  Level Indianapolis Center
08:18PM 37.4786 -83.1342 322° Northwest 428 493 36,000  Level Indianapolis Center
08:19PM 37.5722 -83.2272 322° Northwest 428 493 36,000  Level Indianapolis Center
08:20PM 37.6650 -83.3186 322° Northwest 423 487 36,000  Level Indianapolis Center
08:21PM 37.7733 -83.4261 322° Northwest 425 489 36,000  Level Indianapolis Center
08:22PM 37.8647 -83.5158 322° Northwest 417 480 36,000  Level Indianapolis Center
08:23PM 37.9542 -83.6056 322° Northwest 411 473 36,000  Level Indianapolis Center
08:24PM 38.0431 -83.6942 322° Northwest 406 467 36,000  Level Indianapolis Center
08:25PM 38.1308 -83.7833 321° Northwest 405 466 36,000  Level Indianapolis Center
08:26PM 38.2181 -83.8719 321° Northwest 401 461 36,000  Level Indianapolis Center
08:27PM 38.3222 -83.9761 322° Northwest 407 468 36,000  Level Indianapolis Center
08:28PM 38.4108 -84.0661 321° Northwest 407 468 36,000  Level Indianapolis Center
08:29PM 38.5003 -84.1581 321° Northwest 412 474 36,000  Level Indianapolis Center
08:31PM 38.5908 -84.2492 322° Northwest 414 476 36,000  Level Indianapolis Center
08:32PM 38.6761 -84.3392 321° Northwest 414 476 36,000  Level Indianapolis Center
08:33PM 38.7619 -84.4403 317° Northwest 415 478 36,000  Level Indianapolis Center
08:34PM 38.8569 -84.5503 318° Northwest 413 475 36,000  Level Indianapolis Center
08:35PM 38.9669 -84.6286 331° Northwest 421 484 36,000 -120 Level Indianapolis Center
08:36PM 39.0731 -84.6939 334° Northwest 420 483 35,800 -480 Descending Indianapolis Center
08:37PM 39.1878 -84.7428 342° North 427 491 35,100 -840 Descending Indianapolis Center
08:38PM 39.3042 -84.7928 342° North 434 499 34,100 -1,380 Descending Indianapolis Center
08:39PM 39.4192 -84.8378 343° North 429 494 32,300 -1,920 Descending Indianapolis Center
08:40PM 39.5342 -84.8850 342° North 427 491 30,200 -2,040 Descending Indianapolis Center
08:41PM 39.6494 -84.9417 339° North 431 496 28,200 -1,080 Descending Indianapolis Center
08:42PM 39.7503 -85.0269 327° Northwest 436 502 28,000 -600 Descending Indianapolis Center
08:43PM 39.8233 -85.1344 312° West 401 461 27,000 -960 Descending Indianapolis Center
08:44PM 39.8717 -85.2533 298° West 374 430 26,100 -540 Descending Indianapolis Center
08:45PM 39.9294 -85.3936 298° West 368 423 26,000 -60 Descending Indianapolis Center
08:46PM 39.9819 -85.5153 299° West 384 442 26,000  Level Indianapolis Center
08:47PM 40.0442 -85.6311 305° West 398 458 26,000 -360 Level Indianapolis Center
08:48PM 40.1364 -85.6639 345° North 437 503 25,400 -900 Descending Chicago Center
08:49PM 40.2661 -85.6678 359° North 464 534 24,400 -720 Descending Chicago Center
08:50PM 40.3725 -85.7339 335° Northwest 451 519 24,000 -240 Descending Chicago Center
08:51PM 40.4550 -85.8547 312° West 447 514 24,000 -540 Level Chicago Center
08:52PM 40.5569 -85.9975 313° West 449 517 23,000 -540 Descending Chicago Center
08:53PM 40.6394 -86.1122 313° West 437 503 23,000  Level Chicago Center
08:54PM 40.7142 -86.2192 313° West 436 502 23,000  Level Chicago Center
08:55PM 40.8136 -86.3611 313° West 439 505 23,000  Level Chicago Center
08:56PM 40.8972 -86.4811 313° West 443 510 23,000 -180 Level Chicago Center
08:57PM 40.9794 -86.6003 312° West 440 506 22,700 -1,320 Descending Chicago Center
08:58PM 41.0597 -86.7142 313° West 425 489 20,300 -2,580 Descending Chicago Center
08:59PM 41.1469 -86.8381 313° West 410 472 17,400 -2,520 Descending Chicago Center
09:00PM 41.2186 -86.9428 312° West 390 449 15,200 -2,160 Descending Chicago Center
09:01PM 41.2875 -87.0447 312° West 378 435 13,000 -1,980 Descending Chicago Center
09:02PM 41.3567 -87.1453 313° West 373 429 11,100 -960 Descending Chicago Center
09:03PM 41.4228 -87.2408 313° West 359 413 11,000 -60 Descending Chicago Center
09:04PM 41.5003 -87.3556 312° West 352 405 11,000  Level Chicago Center
09:05PM 41.5733 -87.4403 319° Northwest 351 404 11,000  Level Chicago Center
09:06PM 41.6478 -87.5228 320° Northwest 351 404 11,000 -240 Level Chicago Center
09:07PM 41.7206 -87.6075 319° Northwest 353 406 10,600 -780 Descending Chicago Center
09:08PM 41.7922 -87.6883 320° Northwest 284 327 9,500 -1,020 Descending Chicago Center
09:09PM 41.8542 -87.7578 320° Northwest 291 335 8,600 -1,020 Descending Chicago Center
09:11PM 41.9258 -87.7911 341° North 289 333 7,500 -780 Descending Chicago Center
09:12PM 41.9950 -87.7689 13° North 275 316 7,000 -720 Descending Chicago Center
09:13PM 42.0550 -87.7128 35° Northeast 263 303 6,100 -1,020 Descending Chicago Center
09:14PM 42.1275 -87.6483 33° Northeast 262 302 5,000 -960 Descending Chicago Center
09:15PM 42.1569 -87.7108 302° West 223 257 4,200 -660 Descending Chicago Center
09:16PM 42.1275 -87.7572 229° Southwest 178 205 3,700 -600 Descending Chicago Center
09:17PM 42.0919 -87.7936 217° Southwest 168 193 3,000 -780 Descending Chicago Center
09:18PM 42.0572 -87.8325 220° Southwest 165 190 2,100 -780 Descending Chicago Center
09:19PM 42.0272 -87.8650 219° Southwest 154 177 1,500 -720 Descending Chicago Center
09:19PM 42.0167 -87.8833 232° Southwest 130 150 1,100 -1,140 Descending Chicago TRACON
09:21PM 41.9817 -87.9067 270° West  Level Estimated